createdAt,value
2023-04-16T00:02:02.105Z,59.63
2023-04-16T00:04:29.996Z,63.73
2023-04-16T00:06:57.713Z,68.72
2023-04-16T00:09:25.499Z,75.32
2023-04-16T00:11:53.132Z,59.78
2023-04-16T00:14:22.099Z,76.00
2023-04-16T00:16:51.179Z,76.80
2023-04-16T00:19:18.941Z,68.47
2023-04-16T00:21:46.680Z,72.00
2023-04-16T00:24:14.870Z,66.63
2023-04-16T00:26:44.319Z,68.33
2023-04-16T00:29:12.000Z,64.00
2023-04-16T00:31:39.674Z,78.03
2023-04-16T00:34:08.756Z,72.55
2023-04-16T00:36:36.415Z,72.38
2023-04-16T00:39:04.130Z,70.25
2023-04-16T00:41:31.791Z,66.00
2023-04-16T00:43:59.464Z,74.97
2023-04-16T00:46:27.293Z,71.10
2023-04-16T00:48:55.499Z,79.88
2023-04-16T00:51:24.921Z,76.75
2023-04-16T00:53:52.900Z,71.55
2023-04-16T00:56:20.735Z,82.50
2023-04-16T00:58:48.647Z,84.50
2023-04-16T01:01:16.567Z,84.35
2023-04-16T01:03:45.868Z,85.97
2023-04-16T01:06:13.965Z,91.50
2023-04-16T01:08:43.191Z,79.37
2023-04-16T01:11:11.151Z,82.00
2023-04-16T01:13:39.844Z,99.53
2023-04-16T01:16:09.418Z,92.70
2023-04-16T01:18:37.813Z,91.78
2023-04-16T01:21:07.252Z,97.05
2023-04-16T01:23:34.974Z,92.30
2023-04-16T01:26:02.763Z,82.32
2023-04-16T01:28:30.470Z,75.88
2023-04-16T01:30:58.192Z,86.13
2023-04-16T01:33:25.883Z,80.93
2023-04-16T01:35:53.572Z,78.50
2023-04-16T01:38:22.756Z,70.05
2023-04-16T01:40:50.449Z,80.47
2023-04-16T01:43:18.130Z,81.40
2023-04-16T01:45:45.995Z,80.07
2023-04-16T01:48:13.681Z,77.45
2023-04-16T01:50:41.360Z,71.28
2023-04-16T01:53:09.728Z,87.13
2023-04-16T01:55:38.859Z,79.40
2023-04-16T01:58:07.935Z,79.93
2023-04-16T02:00:35.798Z,76.65
2023-04-16T02:03:03.815Z,80.07
2023-04-16T02:05:31.713Z,79.63
2023-04-16T02:07:59.378Z,71.32
2023-04-16T02:10:27.032Z,79.88
2023-04-16T02:12:56.626Z,80.75
2023-04-16T02:15:25.360Z,78.82
2023-04-16T02:17:56.790Z,78.32
2023-04-16T02:20:24.569Z,76.57
2023-04-16T02:22:52.238Z,84.83
2023-04-16T02:25:19.922Z,80.97
2023-04-16T02:27:47.580Z,80.77
2023-04-16T02:30:17.758Z,80.05
2023-04-16T02:32:45.471Z,82.55
2023-04-16T02:35:13.246Z,82.53
2023-04-16T02:37:41.708Z,81.28
2023-04-16T02:40:10.838Z,80.28
2023-04-16T02:42:38.509Z,76.55
2023-04-16T02:45:07.091Z,78.18
2023-04-16T02:47:36.165Z,70.70
2023-04-16T02:50:03.996Z,68.03
2023-04-16T02:52:32.823Z,73.82
2023-04-16T02:55:00.538Z,70.85
2023-04-16T02:57:28.221Z,67.90
2023-04-16T02:59:55.984Z,71.45
2023-04-16T03:02:23.836Z,74.20
2023-04-16T03:04:52.988Z,69.90
2023-04-16T03:07:20.728Z,67.82
2023-04-16T03:09:48.412Z,69.28
2023-04-16T03:12:16.092Z,67.65
2023-04-16T03:14:43.737Z,80.55
2023-04-16T03:17:35.385Z,71.95
2023-04-16T03:20:05.322Z,66.55
2023-04-16T03:22:32.978Z,73.13
2023-04-16T03:25:00.623Z,76.80
2023-04-16T03:27:28.308Z,71.25
2023-04-16T03:29:56.214Z,69.57
2023-04-16T03:32:24.125Z,67.40
2023-04-16T03:34:52.003Z,68.32
2023-04-16T03:37:21.089Z,74.47
2023-04-16T03:39:48.812Z,79.93
2023-04-16T03:42:16.901Z,75.18
2023-04-16T03:44:44.789Z,79.18
2023-04-16T03:47:12.479Z,70.07
2023-04-16T03:49:40.264Z,66.30
2023-04-16T03:52:07.943Z,71.97
2023-04-16T03:54:36.997Z,71.57
2023-04-16T03:57:04.974Z,75.18
2023-04-16T03:59:32.738Z,72.57
2023-04-16T04:02:00.512Z,73.20
2023-04-16T04:04:28.327Z,72.22
2023-04-16T04:06:56.413Z,76.65
2023-04-16T04:09:24.097Z,71.95
2023-04-16T04:11:53.197Z,65.60
2023-04-16T04:14:20.892Z,70.55
2023-04-16T04:16:48.987Z,76.10
2023-04-16T04:19:16.835Z,64.55
2023-04-16T04:21:44.465Z,74.20
2023-04-16T04:24:12.120Z,73.40
2023-04-16T04:26:39.770Z,76.90
2023-04-16T04:29:12.055Z,66.53
2023-04-16T04:31:39.934Z,72.07
2023-04-16T04:34:07.610Z,74.50
2023-04-16T04:36:35.491Z,78.35
2023-04-16T04:39:03.748Z,71.05
2023-04-16T04:41:31.433Z,70.93
2023-04-16T04:43:59.125Z,64.03
2023-04-16T04:46:28.217Z,68.00
2023-04-16T04:48:55.876Z,69.72
2023-04-16T04:51:23.534Z,70.35
2023-04-16T04:53:51.411Z,67.78
2023-04-16T04:56:19.106Z,74.68
2023-04-16T04:58:46.828Z,72.60
2023-04-16T05:01:14.597Z,70.40
2023-04-16T05:03:43.791Z,67.47
2023-04-16T05:06:11.612Z,71.47
2023-04-16T05:08:39.294Z,67.25
2023-04-16T05:11:06.950Z,68.18
2023-04-16T05:13:34.613Z,66.40
2023-04-16T05:16:02.503Z,61.78
2023-04-16T05:18:31.129Z,63.35
2023-04-16T05:21:00.234Z,61.40
2023-04-16T05:23:27.914Z,64.05
2023-04-16T05:25:55.670Z,69.07
2023-04-16T05:28:23.394Z,57.38
2023-04-16T05:30:51.133Z,59.60
2023-04-16T05:33:18.895Z,69.30
2023-04-16T05:35:46.582Z,59.95
2023-04-16T05:38:18.309Z,67.87
2023-04-16T05:40:46.144Z,64.95
2023-04-16T05:43:13.836Z,60.47
2023-04-16T05:45:41.614Z,63.10
2023-04-16T05:48:10.126Z,55.58
2023-04-16T05:50:37.832Z,57.08
2023-04-16T05:53:07.205Z,65.25
2023-04-16T05:55:36.877Z,58.67
2023-04-16T05:58:05.266Z,69.88
2023-04-16T06:00:33.102Z,60.67
2023-04-16T06:03:01.181Z,71.40
2023-04-16T06:05:29.127Z,59.17
2023-04-16T06:07:57.219Z,61.60
2023-04-16T06:10:24.986Z,62.03
2023-04-16T06:12:54.071Z,60.47
2023-04-16T06:15:21.961Z,60.00
2023-04-16T06:17:50.430Z,60.95
2023-04-16T06:20:18.185Z,60.90
2023-04-16T06:22:45.859Z,62.55
2023-04-16T06:25:14.008Z,65.13
2023-04-16T06:27:42.469Z,59.53
2023-04-16T06:30:14.568Z,63.23
2023-04-16T06:32:42.334Z,58.00
2023-04-16T06:35:10.547Z,60.00
2023-04-16T06:37:38.209Z,60.85
2023-04-16T06:40:06.793Z,57.17
2023-04-16T06:42:34.492Z,60.28
2023-04-16T06:45:02.493Z,56.67
2023-04-16T06:47:31.581Z,55.17
2023-04-16T06:49:59.604Z,55.55
2023-04-16T06:52:27.316Z,59.15
2023-04-16T06:54:55.024Z,56.47
2023-04-16T06:57:22.701Z,58.17
2023-04-16T06:59:50.351Z,54.00
2023-04-16T07:02:18.212Z,49.13
2023-04-16T07:04:47.332Z,51.90
2023-04-16T07:07:15.041Z,51.23
2023-04-16T07:09:42.902Z,51.33
2023-04-16T07:12:11.796Z,52.15
2023-04-16T07:14:39.448Z,53.17
2023-04-16T07:17:07.116Z,52.60
2023-04-16T07:19:35.564Z,53.75
2023-04-16T07:22:05.220Z,45.20
2023-04-16T07:24:33.104Z,54.63
2023-04-16T07:30:18.642Z,46.35
2023-04-16T07:32:46.375Z,49.50
2023-04-16T07:35:14.213Z,48.85
2023-04-16T07:37:43.249Z,52.13
2023-04-16T07:40:11.479Z,47.33
2023-04-16T07:42:39.146Z,50.38
2023-04-16T07:45:07.917Z,46.13
2023-04-16T07:47:35.713Z,46.30
2023-04-16T07:50:03.632Z,41.42
2023-04-16T07:52:31.357Z,49.28
2023-04-16T07:55:00.467Z,44.60
2023-04-16T07:57:28.151Z,43.40
2023-04-16T07:59:55.847Z,41.88
2023-04-16T08:02:23.838Z,45.10
2023-04-16T08:04:51.727Z,44.63
2023-04-16T08:07:19.570Z,46.88
2023-04-16T08:09:53.019Z,43.55
2023-04-16T08:12:22.356Z,44.97
2023-04-16T08:14:50.148Z,41.42
2023-04-16T08:17:17.975Z,46.60
2023-04-16T08:19:45.984Z,42.90
2023-04-16T08:22:13.752Z,42.20
2023-04-16T08:24:41.619Z,46.33
2023-04-16T08:27:18.666Z,44.83
2023-04-16T08:29:48.906Z,44.47
2023-04-16T08:32:16.614Z,44.03
2023-04-16T08:34:44.394Z,45.15
2023-04-16T08:37:12.138Z,47.67
2023-04-16T08:39:39.866Z,46.75
2023-04-16T08:42:13.087Z,44.60
2023-04-16T08:44:46.429Z,47.75
2023-04-16T08:47:17.229Z,38.67
2023-04-16T08:49:46.064Z,39.65
2023-04-16T08:52:17.326Z,42.65
2023-04-16T08:54:56.757Z,33.47
2023-04-16T08:57:25.469Z,33.47
2023-04-16T08:59:53.400Z,39.92
2023-04-16T09:02:23.079Z,35.85
2023-04-16T09:04:51.393Z,34.17
2023-04-16T09:07:20.912Z,39.42
2023-04-16T09:09:50.116Z,38.03
2023-04-16T09:12:18.885Z,34.90
2023-04-16T09:14:49.987Z,38.45
2023-04-16T09:17:18.121Z,36.60
2023-04-16T09:19:47.749Z,33.33
2023-04-16T09:22:15.574Z,30.02
2023-04-16T09:24:43.569Z,28.08
2023-04-16T09:27:12.139Z,31.38
2023-04-16T09:29:41.453Z,28.50
2023-04-16T09:32:10.635Z,27.95
2023-04-16T09:34:56.067Z,29.40
2023-04-16T09:37:24.091Z,27.13
2023-04-16T09:39:56.435Z,28.17
2023-04-16T09:42:27.120Z,28.80
2023-04-16T09:44:57.244Z,25.85
2023-04-16T09:47:27.863Z,25.70
2023-04-16T09:50:00.143Z,29.85
2023-04-16T09:52:28.202Z,29.05
2023-04-16T09:54:55.998Z,24.92
2023-04-16T09:57:24.752Z,24.75
2023-04-16T09:59:55.040Z,27.85
2023-04-16T10:02:23.767Z,23.63
2023-04-16T10:04:52.437Z,23.85
2023-04-16T10:07:22.067Z,23.10
2023-04-16T10:09:50.692Z,21.92
2023-04-16T10:12:18.413Z,22.45
2023-04-16T10:14:48.263Z,25.30
2023-04-16T10:17:17.897Z,21.73
2023-04-16T10:19:45.821Z,18.08
2023-04-16T10:22:13.812Z,19.17
2023-04-16T10:24:43.001Z,19.13
2023-04-16T10:27:10.795Z,18.13
2023-04-16T10:29:38.898Z,19.02
2023-04-16T10:32:08.034Z,25.33
2023-04-16T10:34:36.537Z,23.23
2023-04-16T10:37:04.404Z,26.75
2023-04-16T10:39:34.838Z,23.92
2023-04-16T10:42:11.833Z,23.67
2023-04-16T10:44:43.510Z,24.70
2023-04-16T10:47:14.379Z,23.95
2023-04-16T10:49:42.673Z,22.17
2023-04-16T10:52:12.573Z,20.13
2023-04-16T10:54:41.030Z,21.50
2023-04-16T10:57:12.302Z,21.52
2023-04-16T10:59:40.425Z,18.73
2023-04-16T11:02:09.708Z,20.92
2023-04-16T11:04:39.002Z,20.00
2023-04-16T11:07:17.404Z,17.90
2023-04-16T11:09:47.083Z,19.60
2023-04-16T11:12:18.473Z,19.60
2023-04-16T11:14:49.123Z,22.10
2023-04-16T11:17:17.340Z,18.95
2023-04-16T11:19:45.717Z,17.83
2023-04-16T11:22:17.104Z,21.70
2023-04-16T11:24:45.649Z,19.50
2023-04-16T11:27:14.658Z,17.40
2023-04-16T11:29:46.313Z,18.90
2023-04-16T11:32:23.901Z,17.73
2023-04-16T11:34:52.111Z,20.63
2023-04-16T11:37:22.551Z,19.73
2023-04-16T11:39:51.631Z,17.13
2023-04-16T11:42:23.777Z,21.70
2023-04-16T11:45:01.513Z,21.88
2023-04-16T11:47:31.449Z,20.63
2023-04-16T11:49:59.874Z,18.33
2023-04-16T11:52:30.975Z,19.33
2023-04-16T11:54:58.956Z,20.67
2023-04-16T11:57:28.403Z,21.88
2023-04-16T12:00:02.011Z,20.45
2023-04-16T12:02:39.151Z,21.25
2023-04-16T12:05:09.788Z,21.02
2023-04-16T12:07:46.814Z,19.27
2023-04-16T12:10:14.620Z,18.08
2023-04-16T12:12:42.328Z,24.08
2023-04-16T12:15:14.433Z,19.95
2023-04-16T12:17:42.432Z,20.20
2023-04-16T12:20:11.810Z,21.20
2023-04-16T12:22:40.657Z,21.90
2023-04-16T12:25:12.194Z,21.63
2023-04-16T12:27:48.004Z,17.90
2023-04-16T12:30:19.217Z,19.27
2023-04-16T12:35:32.651Z,22.73
2023-04-16T12:38:00.643Z,19.73
2023-04-16T12:40:29.059Z,20.10
2023-04-16T12:42:57.458Z,20.58
2023-04-16T12:45:26.712Z,21.48
2023-04-16T12:47:54.488Z,25.10
2023-04-16T12:50:22.410Z,23.67
2023-04-16T12:52:52.595Z,22.95
2023-04-16T12:55:20.518Z,23.05
2023-04-16T12:57:49.077Z,20.50
2023-04-16T13:00:17.677Z,22.52
2023-04-16T13:02:47.387Z,22.25
2023-04-16T13:05:16.628Z,18.75
2023-04-16T13:07:44.435Z,20.77
2023-04-16T13:10:13.285Z,23.80
2023-04-16T13:12:41.104Z,18.40
2023-04-16T13:15:10.522Z,19.30
2023-04-16T13:17:38.386Z,18.20
2023-04-16T13:20:09.077Z,21.23
2023-04-16T13:22:37.060Z,16.95
2023-04-16T13:25:05.038Z,19.23
2023-04-16T13:27:32.925Z,19.67
2023-04-16T13:30:00.662Z,21.73
2023-04-16T13:32:28.935Z,16.73
2023-04-16T13:34:56.648Z,18.08
2023-04-16T13:37:26.095Z,16.15
2023-04-16T13:39:53.780Z,18.75
2023-04-16T13:42:22.237Z,18.55
2023-04-16T13:44:53.128Z,17.83
2023-04-16T13:47:20.950Z,16.67
2023-04-16T13:49:48.737Z,15.70
2023-04-16T13:52:16.817Z,19.27
2023-04-16T13:54:45.959Z,16.73
2023-04-16T13:57:13.802Z,17.30
2023-04-16T13:59:41.591Z,17.35
2023-04-16T14:02:12.631Z,16.65
2023-04-16T14:04:40.488Z,18.83
2023-04-16T14:07:08.837Z,19.63
2023-04-16T14:09:38.000Z,17.13
2023-04-16T14:12:07.688Z,19.30
2023-04-16T14:14:35.390Z,17.25
2023-04-16T14:17:04.265Z,17.23
2023-04-16T14:19:32.048Z,17.92
2023-04-16T14:21:59.915Z,17.42
2023-04-16T14:24:27.570Z,16.88
2023-04-16T14:26:55.548Z,16.58
2023-04-16T14:29:24.646Z,18.10
2023-04-16T14:31:52.729Z,16.95
2023-04-16T14:34:20.513Z,16.50
2023-04-16T14:36:49.148Z,17.42
2023-04-16T14:39:17.535Z,14.90
2023-04-16T14:41:45.262Z,15.40
2023-04-16T14:44:13.049Z,16.25
2023-04-16T14:46:42.795Z,14.27
2023-04-16T14:49:12.280Z,15.97
2023-04-16T14:51:40.441Z,12.32
2023-04-16T14:54:08.307Z,13.95
2023-04-16T14:56:36.119Z,12.98
2023-04-16T14:59:04.116Z,13.68
2023-04-16T15:01:32.326Z,15.63
2023-04-16T15:04:03.114Z,14.95
2023-04-16T15:06:32.378Z,13.23
2023-04-16T15:09:00.255Z,13.55
2023-04-16T15:11:28.833Z,15.73
2023-04-16T15:13:56.561Z,13.73
2023-04-16T15:16:24.749Z,14.65
2023-04-16T15:18:52.708Z,16.58
2023-04-16T15:21:22.140Z,14.60
2023-04-16T15:23:49.870Z,13.75
2023-04-16T15:26:17.597Z,13.52
2023-04-16T15:31:30.688Z,15.40
2023-04-16T15:33:59.937Z,14.27
2023-04-16T15:36:29.249Z,15.32
2023-04-16T15:38:57.002Z,15.55
2023-04-16T15:41:25.582Z,13.70
2023-04-16T15:43:53.300Z,13.40
2023-04-16T15:46:21.292Z,13.27
2023-04-16T15:48:49.081Z,11.00
2023-04-16T15:51:17.128Z,12.38
2023-04-16T15:53:46.356Z,14.23
2023-04-16T15:56:14.293Z,14.15
2023-04-16T15:58:41.985Z,15.97
2023-04-16T16:01:09.962Z,19.77
2023-04-16T16:03:37.800Z,13.23
2023-04-16T16:06:07.689Z,17.00
2023-04-16T16:08:37.815Z,15.57
2023-04-16T16:11:16.150Z,14.23
2023-04-16T16:13:43.843Z,15.37
2023-04-16T16:16:11.847Z,13.40
2023-04-16T16:18:39.567Z,14.15
2023-04-16T16:21:08.089Z,12.57
2023-04-16T16:23:36.123Z,17.60
2023-04-16T16:26:06.128Z,17.60
2023-04-16T16:28:37.661Z,14.90
2023-04-16T16:31:06.069Z,15.38
2023-04-16T16:33:34.300Z,16.90
2023-04-16T16:36:02.036Z,15.57
2023-04-16T16:38:29.748Z,13.63
2023-04-16T16:40:57.474Z,16.45
2023-04-16T16:43:25.161Z,13.45
2023-04-16T16:45:54.319Z,15.85
2023-04-16T16:48:22.263Z,14.17
2023-04-16T16:51:38.869Z,14.82
2023-04-16T16:53:38.532Z,16.77
2023-04-16T16:56:07.161Z,14.48
2023-04-16T16:58:35.129Z,16.58
2023-04-16T17:01:04.378Z,16.77
2023-04-16T17:03:32.134Z,18.50
2023-04-16T17:06:00.185Z,16.67
2023-04-16T17:08:28.961Z,14.57
2023-04-16T17:10:56.644Z,15.15
2023-04-16T17:13:25.282Z,13.45
2023-04-16T17:15:52.984Z,17.02
2023-04-16T17:18:22.211Z,14.38
2023-04-16T17:20:49.951Z,19.25
2023-04-16T17:23:17.686Z,13.73
2023-04-16T17:25:45.466Z,16.60
2023-04-16T17:28:13.226Z,17.10
2023-04-16T17:30:40.933Z,15.10
2023-04-16T17:33:08.692Z,16.23
2023-04-16T17:35:37.894Z,16.23
2023-04-16T17:38:05.976Z,17.53
2023-04-16T17:40:33.661Z,15.80
2023-04-16T17:43:01.655Z,17.27
2023-04-16T17:45:29.364Z,19.20
2023-04-16T17:47:57.093Z,18.17
2023-04-16T17:50:24.908Z,15.82
2023-04-16T17:52:54.288Z,18.33
2023-04-16T17:55:22.054Z,16.70
2023-04-16T17:57:49.999Z,20.10
2023-04-16T18:00:18.601Z,15.07
2023-04-16T18:02:46.398Z,17.37
2023-04-16T18:05:14.240Z,17.02
2023-04-16T18:07:43.634Z,19.55
2023-04-16T18:10:34.879Z,16.05
2023-04-16T18:13:02.610Z,22.05
2023-04-16T18:15:30.856Z,17.58
2023-04-16T18:17:58.612Z,16.48
2023-04-16T18:20:27.195Z,20.73
2023-04-16T18:22:54.956Z,20.05
2023-04-16T18:25:33.932Z,20.48
2023-04-16T18:28:03.842Z,18.90
2023-04-16T18:30:31.987Z,19.60
2023-04-16T18:35:34.091Z,18.63
2023-04-16T18:38:02.312Z,19.20
2023-04-16T18:40:35.043Z,20.65
2023-04-16T18:43:02.889Z,22.38
2023-04-16T18:45:30.895Z,21.00
2023-04-16T18:47:59.699Z,25.02
2023-04-16T18:50:27.509Z,22.73
2023-04-16T18:52:55.247Z,23.08
2023-04-16T18:55:23.083Z,21.95
2023-04-16T18:57:52.298Z,23.05
2023-04-16T19:00:20.557Z,26.10
2023-04-16T19:02:48.393Z,22.25
2023-04-16T19:05:16.230Z,24.77
2023-04-16T19:07:44.017Z,22.33
2023-04-16T19:10:12.239Z,22.50
2023-04-16T19:12:39.962Z,27.27
2023-04-16T19:15:09.653Z,26.33
2023-04-16T19:17:37.407Z,26.75
2023-04-16T19:20:10.557Z,25.40
2023-04-16T19:22:38.287Z,25.25
2023-04-16T19:25:07.244Z,27.13
2023-04-16T19:27:35.579Z,26.83
2023-04-16T19:30:04.017Z,26.02
2023-04-16T19:32:33.130Z,26.63
2023-04-16T19:35:00.876Z,27.73
2023-04-16T19:37:28.556Z,27.55
2023-04-16T19:39:56.681Z,27.48
2023-04-16T19:42:24.514Z,23.97
2023-04-16T19:44:52.281Z,26.08
2023-04-16T19:47:20.386Z,25.20
2023-04-16T19:49:49.555Z,28.10
2023-04-16T19:52:17.389Z,29.08
2023-04-16T19:54:45.293Z,23.73
2023-04-16T19:57:12.968Z,29.90
2023-04-16T19:59:40.674Z,25.58
2023-04-16T20:02:08.326Z,29.73
2023-04-16T20:04:36.615Z,30.87
2023-04-16T20:07:05.864Z,31.27
2023-04-16T20:09:33.547Z,28.27
2023-04-16T20:12:02.058Z,27.58
2023-04-16T20:14:30.079Z,30.63
2023-04-16T20:17:19.523Z,26.77
2023-04-16T20:19:49.600Z,26.25
2023-04-16T20:22:19.190Z,29.90
2023-04-16T20:24:48.291Z,29.30
2023-04-16T20:27:16.826Z,28.02
2023-04-16T20:29:46.396Z,25.45
2023-04-16T20:32:14.071Z,33.78
2023-04-16T20:34:42.931Z,27.35
2023-04-16T20:37:10.646Z,31.90
2023-04-16T20:39:40.166Z,29.60
2023-04-16T20:42:10.112Z,26.73
2023-04-16T20:44:41.282Z,26.13
2023-04-16T20:47:09.272Z,26.63
2023-04-16T20:49:38.332Z,28.80
2023-04-16T20:52:07.438Z,32.70
2023-04-16T20:54:35.167Z,30.40
2023-04-16T20:57:05.092Z,26.42
2023-04-16T20:59:33.084Z,32.50
2023-04-16T21:02:01.610Z,25.70
2023-04-16T21:04:29.675Z,28.15
2023-04-16T21:06:57.487Z,30.13
2023-04-16T21:09:25.169Z,28.37
2023-04-16T21:11:52.968Z,29.30
2023-04-16T21:14:22.100Z,29.87
2023-04-16T21:16:49.838Z,27.00
2023-04-16T21:19:17.563Z,29.13
2023-04-16T21:21:45.479Z,30.38
2023-04-16T21:24:13.180Z,30.20
2023-04-16T21:26:40.942Z,28.37
2023-04-16T21:29:08.866Z,30.77
2023-04-16T21:31:38.077Z,27.05
2023-04-16T21:34:05.861Z,30.50
2023-04-16T21:36:34.212Z,29.45
2023-04-16T21:39:02.271Z,29.47
2023-04-16T21:41:29.957Z,29.65
2023-04-16T21:43:57.664Z,28.95
2023-04-16T21:46:26.383Z,30.77
2023-04-16T21:48:55.516Z,34.55
2023-04-16T21:51:29.040Z,33.65
2023-04-16T21:53:57.086Z,31.27
2023-04-16T21:56:24.889Z,29.23
2023-04-16T21:58:52.675Z,35.58
2023-04-16T22:01:20.494Z,31.15
2023-04-16T22:03:50.986Z,29.92
2023-04-16T22:06:20.939Z,34.35
2023-04-16T22:08:50.079Z,29.60
2023-04-16T22:11:17.954Z,33.15
2023-04-16T22:13:46.422Z,31.15
2023-04-16T22:16:14.432Z,32.03
2023-04-16T22:18:42.820Z,31.02
2023-04-16T22:21:10.561Z,37.08
2023-04-16T22:23:39.651Z,31.10
2023-04-16T22:26:08.405Z,35.95
2023-04-16T22:28:36.141Z,32.47
2023-04-16T22:31:04.108Z,33.40
2023-04-16T22:33:32.164Z,27.92
2023-04-16T22:36:00.570Z,31.30
2023-04-16T22:38:28.264Z,30.00
2023-04-16T22:40:57.372Z,32.07
2023-04-16T22:43:25.061Z,29.95
2023-04-16T22:46:02.430Z,33.90
2023-04-16T22:48:30.118Z,28.52
2023-04-16T22:50:57.910Z,30.05
2023-04-16T22:53:25.720Z,32.35
2023-04-16T22:55:53.404Z,32.33
2023-04-16T22:58:22.563Z,32.40
2023-04-16T23:00:51.849Z,28.30
2023-04-16T23:03:19.648Z,32.55
2023-04-16T23:05:47.461Z,31.37
2023-04-16T23:08:15.175Z,27.23
2023-04-16T23:10:43.217Z,31.70
2023-04-16T23:13:11.193Z,38.22
2023-04-16T23:15:40.663Z,31.30
2023-04-16T23:18:08.399Z,35.80
2023-04-16T23:20:36.554Z,31.75
2023-04-16T23:23:04.710Z,31.70
2023-04-16T23:25:32.929Z,34.40
2023-04-16T23:28:00.715Z,31.23
2023-04-16T23:30:28.429Z,34.50
2023-04-16T23:32:57.550Z,35.03
2023-04-16T23:35:25.414Z,35.22
2023-04-16T23:37:53.125Z,35.30
2023-04-16T23:40:21.106Z,33.80
2023-04-16T23:42:49.034Z,39.53
2023-04-16T23:45:16.984Z,36.90
2023-04-16T23:47:44.822Z,37.22
2023-04-16T23:50:14.425Z,35.10
2023-04-16T23:52:42.139Z,37.45
2023-04-16T23:55:10.396Z,36.40
2023-04-16T23:57:38.417Z,32.40
